sensor_id;sensor_type;location;lat;lon;timestamp;pressure;altitude;pressure_sealevel;temperature
11849;BMP180;5983;49.966;8.052;2022-09-23T00:01:07;100856.00;;;9.10
11849;BMP180;5983;49.966;8.052;2022-09-23T00:03:38;100845.00;;;9.00
11849;BMP180;5983;49.966;8.052;2022-09-23T00:06:09;100847.00;;;9.00
11849;BMP180;5983;49.966;8.052;2022-09-23T00:08:38;100845.00;;;9.00
11849;BMP180;5983;49.966;8.052;2022-09-23T00:11:08;100844.00;;;9.00
11849;BMP180;5983;49.966;8.052;2022-09-23T00:13:40;100846.00;;;9.00
11849;BMP180;5983;49.966;8.052;2022-09-23T00:16:10;100835.00;;;9.00
11849;BMP180;5983;49.966;8.052;2022-09-23T00:18:37;100848.00;;;8.90
11849;BMP180;5983;49.966;8.052;2022-09-23T00:21:06;100838.00;;;8.90
11849;BMP180;5983;49.966;8.052;2022-09-23T00:23:33;100844.00;;;8.90
11849;BMP180;5983;49.966;8.052;2022-09-23T00:26:04;100836.00;;;8.80
11849;BMP180;5983;49.966;8.052;2022-09-23T00:28:32;100836.00;;;8.80
11849;BMP180;5983;49.966;8.052;2022-09-23T00:31:03;100844.00;;;8.70
11849;BMP180;5983;49.966;8.052;2022-09-23T00:33:30;100837.00;;;8.70
11849;BMP180;5983;49.966;8.052;2022-09-23T00:35:58;100828.00;;;8.60
11849;BMP180;5983;49.966;8.052;2022-09-23T00:38:27;100821.00;;;8.60
11849;BMP180;5983;49.966;8.052;2022-09-23T00:40:54;100829.00;;;8.60
11849;BMP180;5983;49.966;8.052;2022-09-23T00:43:37;100829.00;;;8.50
11849;BMP180;5983;49.966;8.052;2022-09-23T00:46:07;100828.00;;;8.50
11849;BMP180;5983;49.966;8.052;2022-09-23T00:48:36;100835.00;;;8.40
11849;BMP180;5983;49.966;8.052;2022-09-23T00:51:06;100830.00;;;8.40
11849;BMP180;5983;49.966;8.052;2022-09-23T00:53:36;100819.00;;;8.40
11849;BMP180;5983;49.966;8.052;2022-09-23T00:56:07;100830.00;;;8.40
11849;BMP180;5983;49.966;8.052;2022-09-23T00:58:44;100826.00;;;8.40
11849;BMP180;5983;49.966;8.052;2022-09-23T01:01:19;100815.00;;;8.30
11849;BMP180;5983;49.966;8.052;2022-09-23T01:03:47;100819.00;;;8.20
11849;BMP180;5983;49.966;8.052;2022-09-23T01:06:15;100822.00;;;8.20
11849;BMP180;5983;49.966;8.052;2022-09-23T01:08:45;100816.00;;;8.20
11849;BMP180;5983;49.966;8.052;2022-09-23T01:11:32;100817.00;;;8.20
11849;BMP180;5983;49.966;8.052;2022-09-23T01:14:21;100810.00;;;8.20
11849;BMP180;5983;49.966;8.052;2022-09-23T01:16:58;100813.00;;;8.20
11849;BMP180;5983;49.966;8.052;2022-09-23T01:20:11;100808.00;;;8.20
11849;BMP180;5983;49.966;8.052;2022-09-23T01:22:53;100800.00;;;8.20
11849;BMP180;5983;49.966;8.052;2022-09-23T01:25:49;100806.00;;;8.30
11849;BMP180;5983;49.966;8.052;2022-09-23T01:28:48;100805.00;;;8.20
11849;BMP180;5983;49.966;8.052;2022-09-23T01:31:30;100800.00;;;8.10
11849;BMP180;5983;49.966;8.052;2022-09-23T01:34:09;100805.00;;;8.10
11849;BMP180;5983;49.966;8.052;2022-09-23T01:36:41;100796.00;;;8.00
11849;BMP180;5983;49.966;8.052;2022-09-23T01:39:16;100798.00;;;8.00
11849;BMP180;5983;49.966;8.052;2022-09-23T01:41:56;100795.00;;;8.00
11849;BMP180;5983;49.966;8.052;2022-09-23T01:44:33;100786.00;;;8.00
11849;BMP180;5983;49.966;8.052;2022-09-23T01:47:09;100792.00;;;8.00
11849;BMP180;5983;49.966;8.052;2022-09-23T01:49:48;100789.00;;;7.90
11849;BMP180;5983;49.966;8.052;2022-09-23T01:52:25;100791.00;;;7.90
11849;BMP180;5983;49.966;8.052;2022-09-23T01:55:01;100788.00;;;7.90
11849;BMP180;5983;49.966;8.052;2022-09-23T01:57:34;100784.00;;;7.80
11849;BMP180;5983;49.966;8.052;2022-09-23T02:00:10;100781.00;;;7.90
11849;BMP180;5983;49.966;8.052;2022-09-23T02:02:46;100781.00;;;7.90
11849;BMP180;5983;49.966;8.052;2022-09-23T02:05:19;100788.00;;;7.90
11849;BMP180;5983;49.966;8.052;2022-09-23T02:07:54;100779.00;;;7.80
11849;BMP180;5983;49.966;8.052;2022-09-23T02:10:30;100778.00;;;7.80
11849;BMP180;5983;49.966;8.052;2022-09-23T02:13:04;100775.00;;;7.80
11849;BMP180;5983;49.966;8.052;2022-09-23T02:15:39;100786.00;;;7.80
11849;BMP180;5983;49.966;8.052;2022-09-23T02:18:13;100763.00;;;7.70
11849;BMP180;5983;49.966;8.052;2022-09-23T02:20:43;100765.00;;;7.70
11849;BMP180;5983;49.966;8.052;2022-09-23T02:23:18;100759.00;;;7.50
11849;BMP180;5983;49.966;8.052;2022-09-23T02:25:56;100762.00;;;7.40
11849;BMP180;5983;49.966;8.052;2022-09-23T02:28:33;100755.00;;;7.40
11849;BMP180;5983;49.966;8.052;2022-09-23T02:31:12;100759.00;;;7.40
11849;BMP180;5983;49.966;8.052;2022-09-23T02:33:51;100752.00;;;7.50
11849;BMP180;5983;49.966;8.052;2022-09-23T02:36:26;100749.00;;;7.50
11849;BMP180;5983;49.966;8.052;2022-09-23T02:39:00;100754.00;;;7.40
11849;BMP180;5983;49.966;8.052;2022-09-23T02:41:35;100753.00;;;7.30
11849;BMP180;5983;49.966;8.052;2022-09-23T02:44:08;100753.00;;;7.30
11849;BMP180;5983;49.966;8.052;2022-09-23T02:46:37;100751.00;;;7.30
11849;BMP180;5983;49.966;8.052;2022-09-23T02:49:13;100762.00;;;7.30
11849;BMP180;5983;49.966;8.052;2022-09-23T02:51:42;100752.00;;;7.30
11849;BMP180;5983;49.966;8.052;2022-09-23T02:54:13;100750.00;;;7.30
11849;BMP180;5983;49.966;8.052;2022-09-23T02:56:41;100747.00;;;7.30
11849;BMP180;5983;49.966;8.052;2022-09-23T02:59:10;100753.00;;;7.40
11849;BMP180;5983;49.966;8.052;2022-09-23T03:01:55;100747.00;;;7.40
11849;BMP180;5983;49.966;8.052;2022-09-23T03:04:39;100757.00;;;7.40
11849;BMP180;5983;49.966;8.052;2022-09-23T03:07:16;100748.00;;;7.40
11849;BMP180;5983;49.966;8.052;2022-09-23T03:09:54;100739.00;;;7.40
11849;BMP180;5983;49.966;8.052;2022-09-23T03:12:34;100747.00;;;7.30
11849;BMP180;5983;49.966;8.052;2022-09-23T03:15:22;100744.00;;;7.40
11849;BMP180;5983;49.966;8.052;2022-09-23T03:17:58;100737.00;;;7.40
11849;BMP180;5983;49.966;8.052;2022-09-23T03:20:34;100745.00;;;7.30
11849;BMP180;5983;49.966;8.052;2022-09-23T03:23:07;100737.00;;;7.30
11849;BMP180;5983;49.966;8.052;2022-09-23T03:25:40;100749.00;;;7.30
11849;BMP180;5983;49.966;8.052;2022-09-23T03:28:10;100748.00;;;7.30
11849;BMP180;5983;49.966;8.052;2022-09-23T03:30:40;100741.00;;;7.30
11849;BMP180;5983;49.966;8.052;2022-09-23T03:33:12;100741.00;;;7.20
11849;BMP180;5983;49.966;8.052;2022-09-23T03:35:50;100745.00;;;7.20
11849;BMP180;5983;49.966;8.052;2022-09-23T03:38:42;100744.00;;;7.20
11849;BMP180;5983;49.966;8.052;2022-09-23T03:41:14;100742.00;;;7.20
11849;BMP180;5983;49.966;8.052;2022-09-23T03:43:45;100743.00;;;7.10
11849;BMP180;5983;49.966;8.052;2022-09-23T03:46:12;100746.00;;;7.10
11849;BMP180;5983;49.966;8.052;2022-09-23T03:48:43;100732.00;;;7.10
11849;BMP180;5983;49.966;8.052;2022-09-23T03:51:21;100737.00;;;7.10
11849;BMP180;5983;49.966;8.052;2022-09-23T03:53:48;100743.00;;;7.10
11849;BMP180;5983;49.966;8.052;2022-09-23T03:56:16;100735.00;;;7.10
11849;BMP180;5983;49.966;8.052;2022-09-23T03:58:43;100737.00;;;7.00
11849;BMP180;5983;49.966;8.052;2022-09-23T04:01:11;100726.00;;;7.00
11849;BMP180;5983;49.966;8.052;2022-09-23T04:03:39;100733.00;;;7.00
11849;BMP180;5983;49.966;8.052;2022-09-23T04:06:07;100724.00;;;7.10
11849;BMP180;5983;49.966;8.052;2022-09-23T04:08:38;100729.00;;;7.10
11849;BMP180;5983;49.966;8.052;2022-09-23T04:11:05;100724.00;;;7.10
11849;BMP180;5983;49.966;8.052;2022-09-23T04:13:32;100718.00;;;7.10
11849;BMP180;5983;49.966;8.052;2022-09-23T04:15:59;100718.00;;;7.10
11849;BMP180;5983;49.966;8.052;2022-09-23T04:18:27;100716.00;;;7.10
11849;BMP180;5983;49.966;8.052;2022-09-23T04:20:56;100715.00;;;7.10
11849;BMP180;5983;49.966;8.052;2022-09-23T04:23:24;100711.00;;;7.00
11849;BMP180;5983;49.966;8.052;2022-09-23T04:25:53;100707.00;;;7.00
11849;BMP180;5983;49.966;8.052;2022-09-23T04:28:21;100707.00;;;7.00
11849;BMP180;5983;49.966;8.052;2022-09-23T04:30:48;100695.00;;;6.90
11849;BMP180;5983;49.966;8.052;2022-09-23T04:33:16;100701.00;;;7.00
11849;BMP180;5983;49.966;8.052;2022-09-23T04:35:43;100697.00;;;7.00
11849;BMP180;5983;49.966;8.052;2022-09-23T04:38:11;100703.00;;;7.00
11849;BMP180;5983;49.966;8.052;2022-09-23T04:40:38;100691.00;;;7.00
11849;BMP180;5983;49.966;8.052;2022-09-23T04:43:06;100700.00;;;6.90
11849;BMP180;5983;49.966;8.052;2022-09-23T04:45:34;100702.00;;;7.00
11849;BMP180;5983;49.966;8.052;2022-09-23T04:48:02;100709.00;;;6.90
11849;BMP180;5983;49.966;8.052;2022-09-23T04:50:29;100708.00;;;6.90
11849;BMP180;5983;49.966;8.052;2022-09-23T04:52:58;100707.00;;;6.90
11849;BMP180;5983;49.966;8.052;2022-09-23T04:55:25;100705.00;;;6.90
11849;BMP180;5983;49.966;8.052;2022-09-23T04:57:52;100708.00;;;6.80
11849;BMP180;5983;49.966;8.052;2022-09-23T05:00:21;100719.00;;;6.80
11849;BMP180;5983;49.966;8.052;2022-09-23T05:02:49;100714.00;;;6.80
11849;BMP180;5983;49.966;8.052;2022-09-23T05:05:23;100721.00;;;6.80
11849;BMP180;5983;49.966;8.052;2022-09-23T05:07:53;100727.00;;;6.80
11849;BMP180;5983;49.966;8.052;2022-09-23T05:10:21;100726.00;;;6.80
11849;BMP180;5983;49.966;8.052;2022-09-23T05:12:48;100722.00;;;6.70
11849;BMP180;5983;49.966;8.052;2022-09-23T05:15:16;100730.00;;;6.80
11849;BMP180;5983;49.966;8.052;2022-09-23T05:17:44;100731.00;;;6.80
11849;BMP180;5983;49.966;8.052;2022-09-23T05:20:11;100731.00;;;6.80
11849;BMP180;5983;49.966;8.052;2022-09-23T05:22:38;100723.00;;;6.80
11849;BMP180;5983;49.966;8.052;2022-09-23T05:25:06;100724.00;;;6.90
11849;BMP180;5983;49.966;8.052;2022-09-23T05:27:33;100732.00;;;6.90
11849;BMP180;5983;49.966;8.052;2022-09-23T05:30:33;100717.00;;;6.90
11849;BMP180;5983;49.966;8.052;2022-09-23T05:33:02;100719.00;;;6.90
11849;BMP180;5983;49.966;8.052;2022-09-23T05:35:30;100721.00;;;6.90
11849;BMP180;5983;49.966;8.052;2022-09-23T05:37:57;100725.00;;;7.00
11849;BMP180;5983;49.966;8.052;2022-09-23T05:40:24;100733.00;;;7.00
11849;BMP180;5983;49.966;8.052;2022-09-23T05:42:52;100730.00;;;7.00
11849;BMP180;5983;49.966;8.052;2022-09-23T05:45:20;100729.00;;;7.10
11849;BMP180;5983;49.966;8.052;2022-09-23T05:47:47;100733.00;;;7.10
11849;BMP180;5983;49.966;8.052;2022-09-23T05:50:15;100732.00;;;7.10
11849;BMP180;5983;49.966;8.052;2022-09-23T05:52:42;100735.00;;;7.20
11849;BMP180;5983;49.966;8.052;2022-09-23T05:55:10;100727.00;;;7.20
11849;BMP180;5983;49.966;8.052;2022-09-23T05:57:37;100727.00;;;7.30
11849;BMP180;5983;49.966;8.052;2022-09-23T06:00:06;100715.00;;;7.50
11849;BMP180;5983;49.966;8.052;2022-09-23T06:02:33;100721.00;;;7.60
11849;BMP180;5983;49.966;8.052;2022-09-23T06:05:00;100716.00;;;7.80
11849;BMP180;5983;49.966;8.052;2022-09-23T06:07:28;100717.00;;;7.80
11849;BMP180;5983;49.966;8.052;2022-09-23T06:09:57;100731.00;;;7.80
11849;BMP180;5983;49.966;8.052;2022-09-23T06:12:24;100728.00;;;7.80
11849;BMP180;5983;49.966;8.052;2022-09-23T06:14:51;100732.00;;;7.90
11849;BMP180;5983;49.966;8.052;2022-09-23T06:17:25;100729.00;;;7.90
11849;BMP180;5983;49.966;8.052;2022-09-23T06:19:52;100723.00;;;8.00
11849;BMP180;5983;49.966;8.052;2022-09-23T06:22:19;100714.00;;;8.00
11849;BMP180;5983;49.966;8.052;2022-09-23T06:24:47;100730.00;;;8.10
11849;BMP180;5983;49.966;8.052;2022-09-23T06:27:14;100718.00;;;8.30
11849;BMP180;5983;49.966;8.052;2022-09-23T06:29:44;100726.00;;;8.30
11849;BMP180;5983;49.966;8.052;2022-09-23T06:32:12;100715.00;;;8.40
11849;BMP180;5983;49.966;8.052;2022-09-23T06:34:39;100728.00;;;8.40
11849;BMP180;5983;49.966;8.052;2022-09-23T06:37:12;100722.00;;;8.50
11849;BMP180;5983;49.966;8.052;2022-09-23T06:39:39;100731.00;;;8.60
11849;BMP180;5983;49.966;8.052;2022-09-23T06:42:08;100731.00;;;8.70
11849;BMP180;5983;49.966;8.052;2022-09-23T06:44:35;100722.00;;;8.80
11849;BMP180;5983;49.966;8.052;2022-09-23T06:47:02;100722.00;;;9.10
11849;BMP180;5983;49.966;8.052;2022-09-23T06:49:29;100727.00;;;9.40
11849;BMP180;5983;49.966;8.052;2022-09-23T06:51:56;100725.00;;;9.60
11849;BMP180;5983;49.966;8.052;2022-09-23T06:54:23;100722.00;;;9.80
11849;BMP180;5983;49.966;8.052;2022-09-23T06:56:52;100726.00;;;10.00
11849;BMP180;5983;49.966;8.052;2022-09-23T06:59:21;100722.00;;;10.20
11849;BMP180;5983;49.966;8.052;2022-09-23T07:01:49;100725.00;;;10.40
11849;BMP180;5983;49.966;8.052;2022-09-23T07:04:16;100730.00;;;10.80
11849;BMP180;5983;49.966;8.052;2022-09-23T07:06:43;100728.00;;;11.20
11849;BMP180;5983;49.966;8.052;2022-09-23T07:09:11;100731.00;;;11.70
11849;BMP180;5983;49.966;8.052;2022-09-23T07:11:38;100733.00;;;12.30
11849;BMP180;5983;49.966;8.052;2022-09-23T07:14:05;100740.00;;;12.80
11849;BMP180;5983;49.966;8.052;2022-09-23T07:16:33;100731.00;;;13.30
11849;BMP180;5983;49.966;8.052;2022-09-23T07:19:00;100737.00;;;14.30
11849;BMP180;5983;49.966;8.052;2022-09-23T07:21:27;100746.00;;;15.40
11849;BMP180;5983;49.966;8.052;2022-09-23T07:23:54;100744.00;;;16.30
11849;BMP180;5983;49.966;8.052;2022-09-23T07:26:24;100754.00;;;17.00
11849;BMP180;5983;49.966;8.052;2022-09-23T07:28:54;100761.00;;;17.50
11849;BMP180;5983;49.966;8.052;2022-09-23T07:31:29;100758.00;;;17.90
11849;BMP180;5983;49.966;8.052;2022-09-23T07:33:59;100760.00;;;18.30
11849;BMP180;5983;49.966;8.052;2022-09-23T07:36:28;100765.00;;;18.90
11849;BMP180;5983;49.966;8.052;2022-09-23T07:38:57;100768.00;;;19.60
11849;BMP180;5983;49.966;8.052;2022-09-23T07:41:30;100768.00;;;20.50
11849;BMP180;5983;49.966;8.052;2022-09-23T07:43:58;100768.00;;;21.30
11849;BMP180;5983;49.966;8.052;2022-09-23T07:46:37;100766.00;;;22.10
11849;BMP180;5983;49.966;8.052;2022-09-23T07:49:18;100773.00;;;22.90
11849;BMP180;5983;49.966;8.052;2022-09-23T07:51:45;100781.00;;;23.50
11849;BMP180;5983;49.966;8.052;2022-09-23T07:57:32;100778.00;;;24.30
11849;BMP180;5983;49.966;8.052;2022-09-23T07:59:59;100780.00;;;24.70
11849;BMP180;5983;49.966;8.052;2022-09-23T08:02:32;100787.00;;;25.10
11849;BMP180;5983;49.966;8.052;2022-09-23T08:05:00;100779.00;;;25.10
11849;BMP180;5983;49.966;8.052;2022-09-23T08:07:28;100783.00;;;25.20
11849;BMP180;5983;49.966;8.052;2022-09-23T08:09:57;100793.00;;;25.40
11849;BMP180;5983;49.966;8.052;2022-09-23T08:12:25;100787.00;;;25.70
11849;BMP180;5983;49.966;8.052;2022-09-23T08:14:52;100799.00;;;25.70
11849;BMP180;5983;49.966;8.052;2022-09-23T08:17:19;100796.00;;;25.60
11849;BMP180;5983;49.966;8.052;2022-09-23T08:19:46;100784.00;;;25.50
11849;BMP180;5983;49.966;8.052;2022-09-23T08:22:20;100791.00;;;26.00
11849;BMP180;5983;49.966;8.052;2022-09-23T08:24:47;100794.00;;;26.20
11849;BMP180;5983;49.966;8.052;2022-09-23T08:27:14;100798.00;;;26.50
11849;BMP180;5983;49.966;8.052;2022-09-23T08:29:41;100791.00;;;26.90
11849;BMP180;5983;49.966;8.052;2022-09-23T08:32:08;100795.00;;;27.20
11849;BMP180;5983;49.966;8.052;2022-09-23T08:34:34;100795.00;;;27.70
11849;BMP180;5983;49.966;8.052;2022-09-23T08:37:01;100797.00;;;28.00
11849;BMP180;5983;49.966;8.052;2022-09-23T08:39:30;100798.00;;;28.10
11849;BMP180;5983;49.966;8.052;2022-09-23T08:42:15;100792.00;;;28.10
11849;BMP180;5983;49.966;8.052;2022-09-23T08:44:48;100790.00;;;28.50
11849;BMP180;5983;49.966;8.052;2022-09-23T08:47:22;100794.00;;;28.30
11849;BMP180;5983;49.966;8.052;2022-09-23T08:49:58;100795.00;;;28.20
11849;BMP180;5983;49.966;8.052;2022-09-23T08:52:32;100789.00;;;27.90
11849;BMP180;5983;49.966;8.052;2022-09-23T08:55:03;100797.00;;;28.00
11849;BMP180;5983;49.966;8.052;2022-09-23T08:57:42;100796.00;;;28.30
11849;BMP180;5983;49.966;8.052;2022-09-23T09:00:20;100791.00;;;28.50
11849;BMP180;5983;49.966;8.052;2022-09-23T09:02:48;100800.00;;;28.60
11849;BMP180;5983;49.966;8.052;2022-09-23T09:05:23;100785.00;;;28.50
11849;BMP180;5983;49.966;8.052;2022-09-23T09:07:55;100787.00;;;28.40
11849;BMP180;5983;49.966;8.052;2022-09-23T09:10:32;100784.00;;;28.60
11849;BMP180;5983;49.966;8.052;2022-09-23T09:13:05;100780.00;;;28.90
11849;BMP180;5983;49.966;8.052;2022-09-23T09:15:40;100778.00;;;29.80
11849;BMP180;5983;49.966;8.052;2022-09-23T09:18:17;100783.00;;;30.20
11849;BMP180;5983;49.966;8.052;2022-09-23T09:20:58;100776.00;;;30.10
11849;BMP180;5983;49.966;8.052;2022-09-23T09:23:38;100778.00;;;29.70
11849;BMP180;5983;49.966;8.052;2022-09-23T09:26:15;100775.00;;;29.90
11849;BMP180;5983;49.966;8.052;2022-09-23T09:28:48;100768.00;;;30.10
11849;BMP180;5983;49.966;8.052;2022-09-23T09:31:24;100776.00;;;30.40
11849;BMP180;5983;49.966;8.052;2022-09-23T09:34:00;100760.00;;;30.20
11849;BMP180;5983;49.966;8.052;2022-09-23T09:36:41;100768.00;;;29.90
11849;BMP180;5983;49.966;8.052;2022-09-23T09:39:11;100770.00;;;29.90
11849;BMP180;5983;49.966;8.052;2022-09-23T09:41:46;100761.00;;;30.30
11849;BMP180;5983;49.966;8.052;2022-09-23T09:44:24;100767.00;;;30.60
11849;BMP180;5983;49.966;8.052;2022-09-23T09:47:07;100759.00;;;31.20
11849;BMP180;5983;49.966;8.052;2022-09-23T09:49:45;100767.00;;;31.20
11849;BMP180;5983;49.966;8.052;2022-09-23T09:52:25;100759.00;;;31.40
11849;BMP180;5983;49.966;8.052;2022-09-23T09:55:36;100757.00;;;31.50
11849;BMP180;5983;49.966;8.052;2022-09-23T09:58:12;100748.00;;;31.60
11849;BMP180;5983;49.966;8.052;2022-09-23T10:00:45;100752.00;;;32.10
11849;BMP180;5983;49.966;8.052;2022-09-23T10:03:40;100752.00;;;32.40
11849;BMP180;5983;49.966;8.052;2022-09-23T10:06:21;100753.00;;;32.00
11849;BMP180;5983;49.966;8.052;2022-09-23T10:09:14;100743.00;;;31.90
11849;BMP180;5983;49.966;8.052;2022-09-23T10:12:09;100748.00;;;31.70
11849;BMP180;5983;49.966;8.052;2022-09-23T10:14:41;100743.00;;;31.30
11849;BMP180;5983;49.966;8.052;2022-09-23T10:17:22;100743.00;;;31.10
11849;BMP180;5983;49.966;8.052;2022-09-23T10:19:55;100743.00;;;30.40
11849;BMP180;5983;49.966;8.052;2022-09-23T10:22:31;100745.00;;;30.40
11849;BMP180;5983;49.966;8.052;2022-09-23T10:25:03;100742.00;;;30.00
11849;BMP180;5983;49.966;8.052;2022-09-23T10:27:34;100731.00;;;29.60
11849;BMP180;5983;49.966;8.052;2022-09-23T10:30:19;100736.00;;;29.20
11849;BMP180;5983;49.966;8.052;2022-09-23T10:32:48;100725.00;;;28.80
11849;BMP180;5983;49.966;8.052;2022-09-23T10:39:13;100722.00;;;28.10
11849;BMP180;5983;49.966;8.052;2022-09-23T10:42:02;100711.00;;;28.30
11849;BMP180;5983;49.966;8.052;2022-09-23T10:45:04;100716.00;;;28.70
11849;BMP180;5983;49.966;8.052;2022-09-23T10:48:02;100720.00;;;28.80
11849;BMP180;5983;49.966;8.052;2022-09-23T10:50:39;100710.00;;;29.10
11849;BMP180;5983;49.966;8.052;2022-09-23T10:53:22;100708.00;;;29.30
11849;BMP180;5983;49.966;8.052;2022-09-23T10:56:11;100718.00;;;29.70
11849;BMP180;5983;49.966;8.052;2022-09-23T10:59:12;100703.00;;;30.20
11849;BMP180;5983;49.966;8.052;2022-09-23T11:01:54;100705.00;;;30.60
11849;BMP180;5983;49.966;8.052;2022-09-23T11:07:52;100707.00;;;31.10
11849;BMP180;5983;49.966;8.052;2022-09-23T11:11:04;100705.00;;;30.70
11849;BMP180;5983;49.966;8.052;2022-09-23T11:17:23;100697.00;;;30.10
11849;BMP180;5983;49.966;8.052;2022-09-23T11:20:24;100700.00;;;29.80
11849;BMP180;5983;49.966;8.052;2022-09-23T11:23:22;100688.00;;;29.70
11849;BMP180;5983;49.966;8.052;2022-09-23T11:25:59;100693.00;;;28.90
11849;BMP180;5983;49.966;8.052;2022-09-23T11:32:01;100680.00;;;28.70
11849;BMP180;5983;49.966;8.052;2022-09-23T11:35:09;100671.00;;;29.00
11849;BMP180;5983;49.966;8.052;2022-09-23T11:37:43;100676.00;;;29.30
11849;BMP180;5983;49.966;8.052;2022-09-23T11:40:19;100675.00;;;29.50
11849;BMP180;5983;49.966;8.052;2022-09-23T11:42:55;100672.00;;;29.40
11849;BMP180;5983;49.966;8.052;2022-09-23T11:45:26;100663.00;;;29.00
11849;BMP180;5983;49.966;8.052;2022-09-23T11:48:00;100662.00;;;29.00
11849;BMP180;5983;49.966;8.052;2022-09-23T11:50:35;100662.00;;;29.00
11849;BMP180;5983;49.966;8.052;2022-09-23T11:53:12;100652.00;;;28.90
11849;BMP180;5983;49.966;8.052;2022-09-23T11:55:46;100655.00;;;29.00
11849;BMP180;5983;49.966;8.052;2022-09-23T11:58:19;100650.00;;;29.10
11849;BMP180;5983;49.966;8.052;2022-09-23T12:00:56;100645.00;;;29.30
11849;BMP180;5983;49.966;8.052;2022-09-23T12:03:33;100646.00;;;29.50
11849;BMP180;5983;49.966;8.052;2022-09-23T12:06:07;100642.00;;;29.50
11849;BMP180;5983;49.966;8.052;2022-09-23T12:08:37;100637.00;;;29.40
11849;BMP180;5983;49.966;8.052;2022-09-23T12:11:18;100638.00;;;29.50
11849;BMP180;5983;49.966;8.052;2022-09-23T12:13:55;100639.00;;;29.50
11849;BMP180;5983;49.966;8.052;2022-09-23T12:16:55;100632.00;;;29.40
11849;BMP180;5983;49.966;8.052;2022-09-23T12:22:52;100619.00;;;29.60
11849;BMP180;5983;49.966;8.052;2022-09-23T12:25:41;100615.00;;;28.90
11849;BMP180;5983;49.966;8.052;2022-09-23T12:28:16;100616.00;;;28.40
11849;BMP180;5983;49.966;8.052;2022-09-23T12:30:47;100612.00;;;28.20
11849;BMP180;5983;49.966;8.052;2022-09-23T12:33:25;100620.00;;;28.00
11849;BMP180;5983;49.966;8.052;2022-09-23T12:35:55;100620.00;;;27.30
11849;BMP180;5983;49.966;8.052;2022-09-23T12:38:33;100608.00;;;26.80
11849;BMP180;5983;49.966;8.052;2022-09-23T12:41:17;100607.00;;;26.60
11849;BMP180;5983;49.966;8.052;2022-09-23T12:43:52;100611.00;;;26.40
11849;BMP180;5983;49.966;8.052;2022-09-23T12:46:23;100604.00;;;25.80
11849;BMP180;5983;49.966;8.052;2022-09-23T12:49:03;100615.00;;;25.50
11849;BMP180;5983;49.966;8.052;2022-09-23T12:51:33;100603.00;;;25.20
11849;BMP180;5983;49.966;8.052;2022-09-23T12:54:23;100602.00;;;25.20
11849;BMP180;5983;49.966;8.052;2022-09-23T12:57:01;100603.00;;;24.90
11849;BMP180;5983;49.966;8.052;2022-09-23T12:59:32;100599.00;;;24.60
11849;BMP180;5983;49.966;8.052;2022-09-23T13:02:33;100580.00;;;24.00
11849;BMP180;5983;49.966;8.052;2022-09-23T13:05:18;100586.00;;;23.50
11849;BMP180;5983;49.966;8.052;2022-09-23T13:08:08;100604.00;;;23.30
11849;BMP180;5983;49.966;8.052;2022-09-23T13:10:45;100590.00;;;23.20
11849;BMP180;5983;49.966;8.052;2022-09-23T13:13:21;100581.00;;;23.40
11849;BMP180;5983;49.966;8.052;2022-09-23T13:15:50;100571.00;;;23.60
11849;BMP180;5983;49.966;8.052;2022-09-23T13:18:54;100570.00;;;23.60
11849;BMP180;5983;49.966;8.052;2022-09-23T13:22:03;100568.00;;;23.30
11849;BMP180;5983;49.966;8.052;2022-09-23T13:24:41;100558.00;;;23.20
11849;BMP180;5983;49.966;8.052;2022-09-23T13:27:23;100549.00;;;23.20
11849;BMP180;5983;49.966;8.052;2022-09-23T13:29:59;100555.00;;;23.00
11849;BMP180;5983;49.966;8.052;2022-09-23T13:32:30;100552.00;;;22.70
11849;BMP180;5983;49.966;8.052;2022-09-23T13:35:02;100552.00;;;22.60
11849;BMP180;5983;49.966;8.052;2022-09-23T13:37:40;100555.00;;;22.50
11849;BMP180;5983;49.966;8.052;2022-09-23T13:40:19;100550.00;;;22.50
11849;BMP180;5983;49.966;8.052;2022-09-23T13:42:55;100549.00;;;22.60
11849;BMP180;5983;49.966;8.052;2022-09-23T13:45:25;100543.00;;;22.70
11849;BMP180;5983;49.966;8.052;2022-09-23T13:48:00;100545.00;;;22.90
11849;BMP180;5983;49.966;8.052;2022-09-23T13:50:28;100532.00;;;23.10
11849;BMP180;5983;49.966;8.052;2022-09-23T13:52:59;100533.00;;;23.40
11849;BMP180;5983;49.966;8.052;2022-09-23T13:55:30;100539.00;;;23.60
11849;BMP180;5983;49.966;8.052;2022-09-23T13:58:02;100546.00;;;23.60
11849;BMP180;5983;49.966;8.052;2022-09-23T14:00:37;100537.00;;;23.30
11849;BMP180;5983;49.966;8.052;2022-09-23T14:03:24;100540.00;;;23.00
11849;BMP180;5983;49.966;8.052;2022-09-23T14:05:54;100529.00;;;23.10
11849;BMP180;5983;49.966;8.052;2022-09-23T14:08:22;100528.00;;;23.20
11849;BMP180;5983;49.966;8.052;2022-09-23T14:10:50;100522.00;;;23.40
11849;BMP180;5983;49.966;8.052;2022-09-23T14:13:22;100514.00;;;23.50
11849;BMP180;5983;49.966;8.052;2022-09-23T14:15:53;100516.00;;;23.20
11849;BMP180;5983;49.966;8.052;2022-09-23T14:18:32;100510.00;;;22.80
11849;BMP180;5983;49.966;8.052;2022-09-23T14:20:59;100501.00;;;22.60
11849;BMP180;5983;49.966;8.052;2022-09-23T14:23:26;100499.00;;;22.40
11849;BMP180;5983;49.966;8.052;2022-09-23T14:25:55;100505.00;;;22.10
11849;BMP180;5983;49.966;8.052;2022-09-23T14:28:26;100496.00;;;22.00
11849;BMP180;5983;49.966;8.052;2022-09-23T14:30:58;100501.00;;;22.00
11849;BMP180;5983;49.966;8.052;2022-09-23T14:33:31;100494.00;;;22.00
11849;BMP180;5983;49.966;8.052;2022-09-23T14:36:06;100495.00;;;22.10
11849;BMP180;5983;49.966;8.052;2022-09-23T14:39:02;100501.00;;;22.10
11849;BMP180;5983;49.966;8.052;2022-09-23T14:41:35;100503.00;;;21.90
11849;BMP180;5983;49.966;8.052;2022-09-23T14:44:06;100498.00;;;21.80
11849;BMP180;5983;49.966;8.052;2022-09-23T14:46:36;100499.00;;;21.70
11849;BMP180;5983;49.966;8.052;2022-09-23T14:49:13;100493.00;;;21.60
11849;BMP180;5983;49.966;8.052;2022-09-23T14:51:48;100485.00;;;21.50
11849;BMP180;5983;49.966;8.052;2022-09-23T14:54:34;100481.00;;;21.30
11849;BMP180;5983;49.966;8.052;2022-09-23T14:57:18;100473.00;;;21.10
11849;BMP180;5983;49.966;8.052;2022-09-23T14:59:55;100468.00;;;20.90
11849;BMP180;5983;49.966;8.052;2022-09-23T15:02:32;100466.00;;;20.70
11849;BMP180;5983;49.966;8.052;2022-09-23T15:05:16;100466.00;;;20.60
11849;BMP180;5983;49.966;8.052;2022-09-23T15:07:48;100466.00;;;20.60
11849;BMP180;5983;49.966;8.052;2022-09-23T15:10:20;100472.00;;;20.40
11849;BMP180;5983;49.966;8.052;2022-09-23T15:12:51;100466.00;;;20.30
11849;BMP180;5983;49.966;8.052;2022-09-23T15:15:25;100464.00;;;20.20